sensor_id;sensor_type;location;lat;lon;timestamp;P1;durP1;ratioP1;P2;durP2;ratioP2
19754;SDS011;10036;47.812;9.274;2023-04-09T00:00:40;19.80;;;15.85;;
19754;SDS011;10036;47.812;9.274;2023-04-09T00:03:07;21.85;;;16.17;;
19754;SDS011;10036;47.812;9.274;2023-04-09T00:05:37;21.48;;;16.05;;
19754;SDS011;10036;47.812;9.274;2023-04-09T00:08:04;23.15;;;16.65;;
19754;SDS011;10036;47.812;9.274;2023-04-09T00:10:33;21.75;;;16.15;;
19754;SDS011;10036;47.812;9.274;2023-04-09T00:13:00;19.85;;;16.08;;
19754;SDS011;10036;47.812;9.274;2023-04-09T00:15:27;22.50;;;16.52;;
19754;SDS011;10036;47.812;9.274;2023-04-09T00:17:54;21.30;;;16.73;;
19754;SDS011;10036;47.812;9.274;2023-04-09T00:20:21;21.33;;;16.15;;
19754;SDS011;10036;47.812;9.274;2023-04-09T00:22:48;21.88;;;16.35;;
19754;SDS011;10036;47.812;9.274;2023-04-09T00:25:15;21.83;;;16.83;;
19754;SDS011;10036;47.812;9.274;2023-04-09T00:27:45;22.60;;;16.52;;
19754;SDS011;10036;47.812;9.274;2023-04-09T00:30:12;21.00;;;16.35;;
19754;SDS011;10036;47.812;9.274;2023-04-09T00:32:39;23.40;;;16.95;;
19754;SDS011;10036;47.812;9.274;2023-04-09T00:35:06;24.02;;;17.35;;
19754;SDS011;10036;47.812;9.274;2023-04-09T00:37:33;24.30;;;17.38;;
19754;SDS011;10036;47.812;9.274;2023-04-09T00:40:00;24.73;;;17.65;;
19754;SDS011;10036;47.812;9.274;2023-04-09T00:42:30;22.73;;;16.17;;
19754;SDS011;10036;47.812;9.274;2023-04-09T00:44:58;24.13;;;16.98;;
19754;SDS011;10036;47.812;9.274;2023-04-09T00:47:25;24.98;;;17.65;;
19754;SDS011;10036;47.812;9.274;2023-04-09T00:49:54;23.50;;;16.73;;
19754;SDS011;10036;47.812;9.274;2023-04-09T00:52:22;27.00;;;16.73;;
19754;SDS011;10036;47.812;9.274;2023-04-09T00:54:50;22.27;;;16.88;;
19754;SDS011;10036;47.812;9.274;2023-04-09T00:57:17;25.85;;;18.17;;
19754;SDS011;10036;47.812;9.274;2023-04-09T00:59:44;24.80;;;17.85;;
19754;SDS011;10036;47.812;9.274;2023-04-09T01:02:13;25.35;;;17.58;;
19754;SDS011;10036;47.812;9.274;2023-04-09T01:04:40;23.83;;;16.60;;
19754;SDS011;10036;47.812;9.274;2023-04-09T01:07:09;23.70;;;17.65;;
19754;SDS011;10036;47.812;9.274;2023-04-09T01:09:41;23.50;;;17.20;;
19754;SDS011;10036;47.812;9.274;2023-04-09T01:12:17;23.10;;;16.17;;
19754;SDS011;10036;47.812;9.274;2023-04-09T01:14:52;21.83;;;16.48;;
19754;SDS011;10036;47.812;9.274;2023-04-09T01:17:28;24.13;;;16.75;;
19754;SDS011;10036;47.812;9.274;2023-04-09T01:20:00;23.90;;;16.98;;
19754;SDS011;10036;47.812;9.274;2023-04-09T01:22:31;26.00;;;18.15;;
19754;SDS011;10036;47.812;9.274;2023-04-09T01:25:13;24.13;;;17.50;;
19754;SDS011;10036;47.812;9.274;2023-04-09T01:27:53;25.25;;;17.25;;
19754;SDS011;10036;47.812;9.274;2023-04-09T01:30:30;23.48;;;17.42;;
19754;SDS011;10036;47.812;9.274;2023-04-09T01:32:57;24.95;;;17.55;;
19754;SDS011;10036;47.812;9.274;2023-04-09T01:35:25;23.85;;;18.00;;
19754;SDS011;10036;47.812;9.274;2023-04-09T01:37:54;24.63;;;17.30;;
19754;SDS011;10036;47.812;9.274;2023-04-09T01:40:22;25.45;;;18.15;;
19754;SDS011;10036;47.812;9.274;2023-04-09T01:42:50;26.13;;;18.35;;
19754;SDS011;10036;47.812;9.274;2023-04-09T01:45:19;25.48;;;17.67;;
19754;SDS011;10036;47.812;9.274;2023-04-09T01:47:46;23.38;;;17.38;;
19754;SDS011;10036;47.812;9.274;2023-04-09T01:50:13;24.67;;;17.70;;
19754;SDS011;10036;47.812;9.274;2023-04-09T01:52:40;26.85;;;18.10;;
19754;SDS011;10036;47.812;9.274;2023-04-09T01:55:08;24.70;;;18.13;;
19754;SDS011;10036;47.812;9.274;2023-04-09T01:57:35;24.83;;;18.92;;
19754;SDS011;10036;47.812;9.274;2023-04-09T02:00:02;28.77;;;18.08;;
19754;SDS011;10036;47.812;9.274;2023-04-09T02:02:34;25.60;;;17.85;;
19754;SDS011;10036;47.812;9.274;2023-04-09T02:05:06;24.65;;;17.50;;
19754;SDS011;10036;47.812;9.274;2023-04-09T02:07:37;24.98;;;17.92;;
19754;SDS011;10036;47.812;9.274;2023-04-09T02:10:08;26.02;;;17.65;;
19754;SDS011;10036;47.812;9.274;2023-04-09T02:12:36;24.00;;;17.40;;
19754;SDS011;10036;47.812;9.274;2023-04-09T02:17:53;24.92;;;17.15;;
19754;SDS011;10036;47.812;9.274;2023-04-09T02:20:20;25.45;;;17.25;;
19754;SDS011;10036;47.812;9.274;2023-04-09T02:22:47;26.00;;;17.85;;
19754;SDS011;10036;47.812;9.274;2023-04-09T02:25:14;23.63;;;17.35;;
19754;SDS011;10036;47.812;9.274;2023-04-09T02:27:41;26.02;;;18.27;;
19754;SDS011;10036;47.812;9.274;2023-04-09T02:30:08;25.35;;;17.25;;
19754;SDS011;10036;47.812;9.274;2023-04-09T02:32:35;23.05;;;16.80;;
19754;SDS011;10036;47.812;9.274;2023-04-09T02:35:04;25.55;;;17.08;;
19754;SDS011;10036;47.812;9.274;2023-04-09T02:37:31;24.70;;;17.40;;
19754;SDS011;10036;47.812;9.274;2023-04-09T02:39:58;24.77;;;17.75;;
19754;SDS011;10036;47.812;9.274;2023-04-09T02:42:26;23.55;;;16.20;;
19754;SDS011;10036;47.812;9.274;2023-04-09T02:44:52;25.92;;;17.20;;
19754;SDS011;10036;47.812;9.274;2023-04-09T02:47:19;23.52;;;16.98;;
19754;SDS011;10036;47.812;9.274;2023-04-09T02:49:46;27.42;;;19.40;;
19754;SDS011;10036;47.812;9.274;2023-04-09T02:52:14;26.88;;;18.55;;
19754;SDS011;10036;47.812;9.274;2023-04-09T02:54:43;27.73;;;18.67;;
19754;SDS011;10036;47.812;9.274;2023-04-09T02:57:11;25.75;;;18.00;;
19754;SDS011;10036;47.812;9.274;2023-04-09T02:59:38;28.92;;;19.33;;
19754;SDS011;10036;47.812;9.274;2023-04-09T03:02:05;28.65;;;19.67;;
19754;SDS011;10036;47.812;9.274;2023-04-09T03:04:31;29.02;;;18.55;;
19754;SDS011;10036;47.812;9.274;2023-04-09T03:06:58;28.75;;;18.88;;
19754;SDS011;10036;47.812;9.274;2023-04-09T03:09:27;31.35;;;19.60;;
19754;SDS011;10036;47.812;9.274;2023-04-09T03:11:54;27.98;;;20.00;;
19754;SDS011;10036;47.812;9.274;2023-04-09T03:14:21;29.42;;;19.85;;
19754;SDS011;10036;47.812;9.274;2023-04-09T03:16:48;30.15;;;20.20;;
19754;SDS011;10036;47.812;9.274;2023-04-09T03:19:15;29.73;;;20.38;;
19754;SDS011;10036;47.812;9.274;2023-04-09T03:21:42;27.25;;;18.42;;
19754;SDS011;10036;47.812;9.274;2023-04-09T03:24:10;28.60;;;18.42;;
19754;SDS011;10036;47.812;9.274;2023-04-09T03:26:38;27.10;;;18.35;;
19754;SDS011;10036;47.812;9.274;2023-04-09T03:29:05;30.55;;;18.77;;
19754;SDS011;10036;47.812;9.274;2023-04-09T03:31:32;28.40;;;19.05;;
19754;SDS011;10036;47.812;9.274;2023-04-09T03:33:59;30.85;;;19.05;;
19754;SDS011;10036;47.812;9.274;2023-04-09T03:36:26;26.85;;;19.35;;
19754;SDS011;10036;47.812;9.274;2023-04-09T03:38:53;28.63;;;19.58;;
19754;SDS011;10036;47.812;9.274;2023-04-09T03:41:20;29.40;;;19.33;;
19754;SDS011;10036;47.812;9.274;2023-04-09T03:43:48;27.63;;;18.67;;
19754;SDS011;10036;47.812;9.274;2023-04-09T03:46:16;26.95;;;19.08;;
19754;SDS011;10036;47.812;9.274;2023-04-09T03:48:43;28.67;;;19.33;;
19754;SDS011;10036;47.812;9.274;2023-04-09T03:51:10;28.05;;;18.60;;
19754;SDS011;10036;47.812;9.274;2023-04-09T03:53:38;29.45;;;19.70;;
19754;SDS011;10036;47.812;9.274;2023-04-09T03:56:05;26.63;;;18.20;;
19754;SDS011;10036;47.812;9.274;2023-04-09T03:58:32;28.55;;;19.48;;
19754;SDS011;10036;47.812;9.274;2023-04-09T04:01:01;25.40;;;18.15;;
19754;SDS011;10036;47.812;9.274;2023-04-09T04:03:28;29.30;;;19.42;;
19754;SDS011;10036;47.812;9.274;2023-04-09T04:05:58;27.13;;;18.00;;
19754;SDS011;10036;47.812;9.274;2023-04-09T04:08:26;29.30;;;18.50;;
19754;SDS011;10036;47.812;9.274;2023-04-09T04:10:53;27.85;;;18.90;;
19754;SDS011;10036;47.812;9.274;2023-04-09T04:13:21;24.85;;;17.60;;
19754;SDS011;10036;47.812;9.274;2023-04-09T04:15:48;26.58;;;18.08;;
19754;SDS011;10036;47.812;9.274;2023-04-09T04:18:16;25.63;;;18.35;;
19754;SDS011;10036;47.812;9.274;2023-04-09T04:20:43;28.80;;;19.70;;
19754;SDS011;10036;47.812;9.274;2023-04-09T04:23:10;30.05;;;18.95;;
19754;SDS011;10036;47.812;9.274;2023-04-09T04:25:39;44.45;;;26.33;;
19754;SDS011;10036;47.812;9.274;2023-04-09T04:28:07;45.17;;;28.10;;
19754;SDS011;10036;47.812;9.274;2023-04-09T04:30:34;62.88;;;34.00;;
19754;SDS011;10036;47.812;9.274;2023-04-09T04:33:01;35.65;;;21.38;;
19754;SDS011;10036;47.812;9.274;2023-04-09T04:35:30;31.00;;;20.35;;
19754;SDS011;10036;47.812;9.274;2023-04-09T04:37:57;31.75;;;18.80;;
19754;SDS011;10036;47.812;9.274;2023-04-09T04:40:25;32.30;;;19.90;;
19754;SDS011;10036;47.812;9.274;2023-04-09T04:42:52;33.22;;;19.88;;
19754;SDS011;10036;47.812;9.274;2023-04-09T04:45:19;37.58;;;20.45;;
19754;SDS011;10036;47.812;9.274;2023-04-09T04:47:46;36.33;;;22.65;;
19754;SDS011;10036;47.812;9.274;2023-04-09T04:50:13;34.90;;;21.27;;
19754;SDS011;10036;47.812;9.274;2023-04-09T04:52:41;32.78;;;20.73;;
19754;SDS011;10036;47.812;9.274;2023-04-09T04:55:08;35.42;;;21.33;;
19754;SDS011;10036;47.812;9.274;2023-04-09T04:57:35;30.90;;;20.15;;
19754;SDS011;10036;47.812;9.274;2023-04-09T05:00:03;31.65;;;20.08;;
19754;SDS011;10036;47.812;9.274;2023-04-09T05:02:30;33.22;;;20.40;;
19754;SDS011;10036;47.812;9.274;2023-04-09T05:04:57;35.05;;;20.70;;
19754;SDS011;10036;47.812;9.274;2023-04-09T05:07:24;31.10;;;19.80;;
19754;SDS011;10036;47.812;9.274;2023-04-09T05:09:53;32.97;;;20.75;;
19754;SDS011;10036;47.812;9.274;2023-04-09T05:12:20;33.50;;;21.00;;
19754;SDS011;10036;47.812;9.274;2023-04-09T05:14:47;34.90;;;20.58;;
19754;SDS011;10036;47.812;9.274;2023-04-09T05:17:13;33.22;;;20.75;;
19754;SDS011;10036;47.812;9.274;2023-04-09T05:19:40;33.30;;;21.23;;
19754;SDS011;10036;47.812;9.274;2023-04-09T05:22:07;33.60;;;21.67;;
19754;SDS011;10036;47.812;9.274;2023-04-09T05:24:34;32.17;;;19.67;;
19754;SDS011;10036;47.812;9.274;2023-04-09T05:27:03;31.75;;;19.83;;
19754;SDS011;10036;47.812;9.274;2023-04-09T05:29:30;31.55;;;20.63;;
19754;SDS011;10036;47.812;9.274;2023-04-09T05:31:56;30.10;;;19.85;;
19754;SDS011;10036;47.812;9.274;2023-04-09T05:34:23;30.40;;;19.63;;
19754;SDS011;10036;47.812;9.274;2023-04-09T05:36:51;31.35;;;19.92;;
19754;SDS011;10036;47.812;9.274;2023-04-09T05:39:18;27.77;;;17.85;;
19754;SDS011;10036;47.812;9.274;2023-04-09T05:41:45;28.38;;;19.30;;
19754;SDS011;10036;47.812;9.274;2023-04-09T05:44:13;29.50;;;19.02;;
19754;SDS011;10036;47.812;9.274;2023-04-09T05:46:40;28.15;;;18.45;;
19754;SDS011;10036;47.812;9.274;2023-04-09T05:49:07;27.13;;;17.52;;
19754;SDS011;10036;47.812;9.274;2023-04-09T05:51:34;26.05;;;17.38;;
19754;SDS011;10036;47.812;9.274;2023-04-09T05:54:01;24.95;;;16.90;;
19754;SDS011;10036;47.812;9.274;2023-04-09T05:56:29;28.05;;;17.42;;
19754;SDS011;10036;47.812;9.274;2023-04-09T05:58:56;30.17;;;18.50;;
19754;SDS011;10036;47.812;9.274;2023-04-09T06:01:24;26.13;;;16.48;;
19754;SDS011;10036;47.812;9.274;2023-04-09T06:03:51;27.25;;;17.50;;
19754;SDS011;10036;47.812;9.274;2023-04-09T06:06:18;26.40;;;17.17;;
19754;SDS011;10036;47.812;9.274;2023-04-09T06:08:45;26.67;;;17.15;;
19754;SDS011;10036;47.812;9.274;2023-04-09T06:11:12;23.77;;;16.30;;
19754;SDS011;10036;47.812;9.274;2023-04-09T06:13:41;24.60;;;16.65;;
19754;SDS011;10036;47.812;9.274;2023-04-09T06:16:08;24.70;;;16.35;;
19754;SDS011;10036;47.812;9.274;2023-04-09T06:18:37;24.17;;;15.73;;
19754;SDS011;10036;47.812;9.274;2023-04-09T06:21:04;24.77;;;16.55;;
19754;SDS011;10036;47.812;9.274;2023-04-09T06:23:34;25.15;;;16.42;;
19754;SDS011;10036;47.812;9.274;2023-04-09T06:26:01;25.10;;;16.55;;
19754;SDS011;10036;47.812;9.274;2023-04-09T06:28:28;25.73;;;16.42;;
19754;SDS011;10036;47.812;9.274;2023-04-09T06:30:55;27.20;;;17.15;;
19754;SDS011;10036;47.812;9.274;2023-04-09T06:33:22;22.80;;;15.82;;
19754;SDS011;10036;47.812;9.274;2023-04-09T06:35:51;22.63;;;15.30;;
19754;SDS011;10036;47.812;9.274;2023-04-09T06:38:18;23.70;;;16.02;;
19754;SDS011;10036;47.812;9.274;2023-04-09T06:40:45;26.52;;;16.17;;
19754;SDS011;10036;47.812;9.274;2023-04-09T06:43:12;24.40;;;16.08;;
19754;SDS011;10036;47.812;9.274;2023-04-09T06:45:39;24.23;;;16.50;;
19754;SDS011;10036;47.812;9.274;2023-04-09T06:48:05;24.50;;;16.67;;
19754;SDS011;10036;47.812;9.274;2023-04-09T06:50:35;24.77;;;15.68;;
19754;SDS011;10036;47.812;9.274;2023-04-09T06:53:04;23.77;;;16.75;;
19754;SDS011;10036;47.812;9.274;2023-04-09T06:55:32;24.65;;;16.80;;
19754;SDS011;10036;47.812;9.274;2023-04-09T06:57:59;26.23;;;17.63;;
19754;SDS011;10036;47.812;9.274;2023-04-09T07:00:26;26.52;;;17.52;;
19754;SDS011;10036;47.812;9.274;2023-04-09T07:02:53;23.27;;;16.02;;
19754;SDS011;10036;47.812;9.274;2023-04-09T07:05:20;21.80;;;15.57;;
19754;SDS011;10036;47.812;9.274;2023-04-09T07:07:48;25.35;;;16.88;;
19754;SDS011;10036;47.812;9.274;2023-04-09T07:10:16;26.58;;;17.27;;
19754;SDS011;10036;47.812;9.274;2023-04-09T07:12:43;27.98;;;17.27;;
19754;SDS011;10036;47.812;9.274;2023-04-09T07:15:10;27.52;;;18.05;;
19754;SDS011;10036;47.812;9.274;2023-04-09T07:17:37;26.80;;;17.80;;
19754;SDS011;10036;47.812;9.274;2023-04-09T07:20:04;28.55;;;17.25;;
19754;SDS011;10036;47.812;9.274;2023-04-09T07:22:31;24.75;;;16.73;;
19754;SDS011;10036;47.812;9.274;2023-04-09T07:24:58;24.20;;;16.67;;
19754;SDS011;10036;47.812;9.274;2023-04-09T07:27:27;25.67;;;16.92;;
19754;SDS011;10036;47.812;9.274;2023-04-09T07:29:54;25.88;;;16.90;;
19754;SDS011;10036;47.812;9.274;2023-04-09T07:32:21;23.95;;;16.02;;
19754;SDS011;10036;47.812;9.274;2023-04-09T07:34:51;23.50;;;16.15;;
19754;SDS011;10036;47.812;9.274;2023-04-09T07:37:18;23.08;;;16.27;;
19754;SDS011;10036;47.812;9.274;2023-04-09T07:39:45;22.27;;;15.38;;
19754;SDS011;10036;47.812;9.274;2023-04-09T07:42:13;21.73;;;15.20;;
19754;SDS011;10036;47.812;9.274;2023-04-09T07:44:41;21.33;;;14.93;;
19754;SDS011;10036;47.812;9.274;2023-04-09T07:47:08;20.17;;;14.18;;
19754;SDS011;10036;47.812;9.274;2023-04-09T07:49:38;21.95;;;14.85;;
19754;SDS011;10036;47.812;9.274;2023-04-09T07:52:04;20.20;;;14.38;;
19754;SDS011;10036;47.812;9.274;2023-04-09T07:54:32;19.63;;;14.75;;
19754;SDS011;10036;47.812;9.274;2023-04-09T07:56:59;18.85;;;13.85;;
19754;SDS011;10036;47.812;9.274;2023-04-09T07:59:26;19.67;;;14.45;;
19754;SDS011;10036;47.812;9.274;2023-04-09T08:01:56;22.02;;;15.05;;
19754;SDS011;10036;47.812;9.274;2023-04-09T08:04:23;20.90;;;14.95;;
19754;SDS011;10036;47.812;9.274;2023-04-09T08:06:51;21.35;;;14.85;;
19754;SDS011;10036;47.812;9.274;2023-04-09T08:09:18;19.05;;;14.15;;
19754;SDS011;10036;47.812;9.274;2023-04-09T08:11:45;20.40;;;14.57;;
19754;SDS011;10036;47.812;9.274;2023-04-09T08:14:13;20.48;;;14.68;;
19754;SDS011;10036;47.812;9.274;2023-04-09T08:16:41;20.33;;;14.20;;
19754;SDS011;10036;47.812;9.274;2023-04-09T08:19:11;20.67;;;15.00;;
19754;SDS011;10036;47.812;9.274;2023-04-09T08:21:38;23.08;;;15.50;;
19754;SDS011;10036;47.812;9.274;2023-04-09T08:24:07;21.75;;;14.05;;
19754;SDS011;10036;47.812;9.274;2023-04-09T08:26:35;20.63;;;14.88;;
19754;SDS011;10036;47.812;9.274;2023-04-09T08:29:02;21.63;;;15.25;;
19754;SDS011;10036;47.812;9.274;2023-04-09T08:31:29;22.45;;;16.70;;
19754;SDS011;10036;47.812;9.274;2023-04-09T08:33:56;22.30;;;15.82;;
19754;SDS011;10036;47.812;9.274;2023-04-09T08:36:24;20.88;;;14.93;;
19754;SDS011;10036;47.812;9.274;2023-04-09T08:38:51;24.50;;;16.33;;
19754;SDS011;10036;47.812;9.274;2023-04-09T08:41:20;20.85;;;15.68;;
19754;SDS011;10036;47.812;9.274;2023-04-09T08:43:48;21.15;;;15.35;;
19754;SDS011;10036;47.812;9.274;2023-04-09T08:46:16;20.98;;;14.70;;
19754;SDS011;10036;47.812;9.274;2023-04-09T08:48:44;23.13;;;15.45;;
19754;SDS011;10036;47.812;9.274;2023-04-09T08:51:12;22.10;;;15.50;;
19754;SDS011;10036;47.812;9.274;2023-04-09T08:53:42;22.60;;;15.07;;
19754;SDS011;10036;47.812;9.274;2023-04-09T08:56:11;21.98;;;16.10;;
19754;SDS011;10036;47.812;9.274;2023-04-09T08:58:40;23.50;;;15.30;;
19754;SDS011;10036;47.812;9.274;2023-04-09T09:01:18;22.52;;;15.60;;
19754;SDS011;10036;47.812;9.274;2023-04-09T09:03:52;19.88;;;14.18;;
19754;SDS011;10036;47.812;9.274;2023-04-09T09:06:21;19.83;;;14.10;;
19754;SDS011;10036;47.812;9.274;2023-04-09T09:09:00;19.85;;;14.18;;
19754;SDS011;10036;47.812;9.274;2023-04-09T09:11:28;18.45;;;13.73;;
19754;SDS011;10036;47.812;9.274;2023-04-09T09:14:02;21.25;;;14.90;;
19754;SDS011;10036;47.812;9.274;2023-04-09T09:16:30;21.05;;;15.18;;
19754;SDS011;10036;47.812;9.274;2023-04-09T09:18:58;18.88;;;13.85;;
19754;SDS011;10036;47.812;9.274;2023-04-09T09:21:26;17.55;;;13.65;;
19754;SDS011;10036;47.812;9.274;2023-04-09T09:23:55;18.65;;;13.38;;
19754;SDS011;10036;47.812;9.274;2023-04-09T09:26:24;17.67;;;12.82;;
19754;SDS011;10036;47.812;9.274;2023-04-09T09:28:53;20.50;;;13.32;;
19754;SDS011;10036;47.812;9.274;2023-04-09T09:31:21;17.38;;;13.18;;
19754;SDS011;10036;47.812;9.274;2023-04-09T09:33:51;17.20;;;13.25;;
19754;SDS011;10036;47.812;9.274;2023-04-09T09:36:30;16.20;;;12.20;;
19754;SDS011;10036;47.812;9.274;2023-04-09T09:38:58;17.50;;;12.95;;
19754;SDS011;10036;47.812;9.274;2023-04-09T09:41:29;17.90;;;12.60;;
19754;SDS011;10036;47.812;9.274;2023-04-09T09:43:56;17.98;;;13.23;;
19754;SDS011;10036;47.812;9.274;2023-04-09T09:46:23;18.50;;;12.90;;
19754;SDS011;10036;47.812;9.274;2023-04-09T09:48:51;17.40;;;12.15;;
19754;SDS011;10036;47.812;9.274;2023-04-09T09:51:19;17.23;;;12.15;;
19754;SDS011;10036;47.812;9.274;2023-04-09T09:53:51;15.32;;;11.77;;
19754;SDS011;10036;47.812;9.274;2023-04-09T09:56:22;15.05;;;11.32;;
19754;SDS011;10036;47.812;9.274;2023-04-09T09:59:00;14.68;;;11.27;;
19754;SDS011;10036;47.812;9.274;2023-04-09T10:01:31;14.43;;;10.75;;
19754;SDS011;10036;47.812;9.274;2023-04-09T10:03:59;12.50;;;10.13;;
19754;SDS011;10036;47.812;9.274;2023-04-09T10:06:27;15.60;;;10.55;;
19754;SDS011;10036;47.812;9.274;2023-04-09T10:08:56;14.95;;;11.50;;
19754;SDS011;10036;47.812;9.274;2023-04-09T10:11:25;14.27;;;11.00;;
19754;SDS011;10036;47.812;9.274;2023-04-09T10:13:54;15.32;;;11.50;;
19754;SDS011;10036;47.812;9.274;2023-04-09T10:16:24;14.98;;;11.10;;
19754;SDS011;10036;47.812;9.274;2023-04-09T10:18:52;12.38;;;9.73;;
19754;SDS011;10036;47.812;9.274;2023-04-09T10:21:27;13.82;;;10.65;;
19754;SDS011;10036;47.812;9.274;2023-04-09T10:24:02;14.85;;;10.95;;
19754;SDS011;10036;47.812;9.274;2023-04-09T10:26:32;13.95;;;10.18;;
19754;SDS011;10036;47.812;9.274;2023-04-09T10:29:03;13.13;;;10.35;;
19754;SDS011;10036;47.812;9.274;2023-04-09T10:31:51;14.40;;;10.75;;
19754;SDS011;10036;47.812;9.274;2023-04-09T10:34:20;12.43;;;9.75;;
19754;SDS011;10036;47.812;9.274;2023-04-09T10:36:49;12.55;;;10.40;;
19754;SDS011;10036;47.812;9.274;2023-04-09T10:39:18;12.13;;;9.40;;
19754;SDS011;10036;47.812;9.274;2023-04-09T10:41:46;12.80;;;9.95;;
19754;SDS011;10036;47.812;9.274;2023-04-09T10:44:21;13.32;;;10.63;;
19754;SDS011;10036;47.812;9.274;2023-04-09T10:46:52;12.43;;;10.50;;
19754;SDS011;10036;47.812;9.274;2023-04-09T10:49:20;10.73;;;8.63;;
19754;SDS011;10036;47.812;9.274;2023-04-09T10:51:52;10.18;;;8.25;;
19754;SDS011;10036;47.812;9.274;2023-04-09T10:54:36;11.57;;;9.02;;
19754;SDS011;10036;47.812;9.274;2023-04-09T10:59:52;10.65;;;8.02;;
19754;SDS011;10036;47.812;9.274;2023-04-09T11:05:32;12.95;;;8.57;;
19754;SDS011;10036;47.812;9.274;2023-04-09T11:08:02;10.20;;;8.57;;
19754;SDS011;10036;47.812;9.274;2023-04-09T11:10:31;9.32;;;7.20;;
19754;SDS011;10036;47.812;9.274;2023-04-09T11:12:58;9.20;;;7.00;;
19754;SDS011;10036;47.812;9.274;2023-04-09T11:18:18;11.65;;;7.47;;
19754;SDS011;10036;47.812;9.274;2023-04-09T11:20:45;10.70;;;7.80;;
19754;SDS011;10036;47.812;9.274;2023-04-09T11:23:13;8.10;;;6.90;;
19754;SDS011;10036;47.812;9.274;2023-04-09T11:28:45;8.23;;;6.68;;
19754;SDS011;10036;47.812;9.274;2023-04-09T11:31:12;8.52;;;6.30;;
19754;SDS011;10036;47.812;9.274;2023-04-09T11:33:42;8.02;;;6.78;;
19754;SDS011;10036;47.812;9.274;2023-04-09T11:36:11;7.05;;;6.35;;
19754;SDS011;10036;47.812;9.274;2023-04-09T11:38:38;7.20;;;6.40;;
19754;SDS011;10036;47.812;9.274;2023-04-09T11:41:05;7.03;;;6.32;;
19754;SDS011;10036;47.812;9.274;2023-04-09T11:43:36;7.57;;;6.30;;
19754;SDS011;10036;47.812;9.274;2023-04-09T11:46:03;8.25;;;6.68;;
19754;SDS011;10036;47.812;9.274;2023-04-09T11:48:32;8.73;;;6.15;;
19754;SDS011;10036;47.812;9.274;2023-04-09T11:51:01;7.47;;;6.20;;
19754;SDS011;10036;47.812;9.274;2023-04-09T11:53:29;6.30;;;5.70;;
19754;SDS011;10036;47.812;9.274;2023-04-09T11:55:56;7.70;;;6.43;;
19754;SDS011;10036;47.812;9.274;2023-04-09T11:58:24;6.50;;;5.80;;
19754;SDS011;10036;47.812;9.274;2023-04-09T12:00:52;6.68;;;5.72;;
19754;SDS011;10036;47.812;9.274;2023-04-09T12:03:26;6.57;;;5.32;;
19754;SDS011;10036;47.812;9.274;2023-04-09T12:09:17;5.90;;;5.30;;
19754;SDS011;10036;47.812;9.274;2023-04-09T12:11:44;6.13;;;5.50;;
19754;SDS011;10036;47.812;9.274;2023-04-09T12:14:11;5.78;;;5.18;;
19754;SDS011;10036;47.812;9.274;2023-04-09T12:16:39;6.03;;;5.20;;
19754;SDS011;10036;47.812;9.274;2023-04-09T12:19:08;7.47;;;5.82;;
19754;SDS011;10036;47.812;9.274;2023-04-09T12:21:45;5.60;;;5.00;;
19754;SDS011;10036;47.812;9.274;2023-04-09T12:24:13;7.63;;;5.60;;
19754;SDS011;10036;47.812;9.274;2023-04-09T12:26:43;5.72;;;5.13;;
19754;SDS011;10036;47.812;9.274;2023-04-09T12:29:10;7.00;;;5.15;;
19754;SDS011;10036;47.812;9.274;2023-04-09T12:31:38;5.82;;;5.00;;
19754;SDS011;10036;47.812;9.274;2023-04-09T12:34:05;5.03;;;4.53;;
19754;SDS011;10036;47.812;9.274;2023-04-09T12:36:31;5.03;;;4.53;;
19754;SDS011;10036;47.812;9.274;2023-04-09T12:38:58;6.20;;;4.88;;
19754;SDS011;10036;47.812;9.274;2023-04-09T12:41:25;4.90;;;4.40;;
19754;SDS011;10036;47.812;9.274;2023-04-09T12:43:54;4.85;;;4.35;;
19754;SDS011;10036;47.812;9.274;2023-04-09T12:46:21;4.47;;;4.07;;
19754;SDS011;10036;47.812;9.274;2023-04-09T12:48:48;6.18;;;4.80;;
19754;SDS011;10036;47.812;9.274;2023-04-09T12:51:15;4.68;;;4.20;;
19754;SDS011;10036;47.812;9.274;2023-04-09T12:53:42;4.80;;;4.25;;
19754;SDS011;10036;47.812;9.274;2023-04-09T12:56:09;4.55;;;4.10;;
19754;SDS011;10036;47.812;9.274;2023-04-09T12:58:35;4.28;;;3.85;;
19754;SDS011;10036;47.812;9.274;2023-04-09T13:01:04;4.10;;;3.70;;
19754;SDS011;10036;47.812;9.274;2023-04-09T13:03:31;4.45;;;4.05;;
19754;SDS011;10036;47.812;9.274;2023-04-09T13:05:58;4.88;;;4.38;;
19754;SDS011;10036;47.812;9.274;2023-04-09T13:08:25;4.63;;;4.22;;
19754;SDS011;10036;47.812;9.274;2023-04-09T13:10:52;4.00;;;3.60;;
19754;SDS011;10036;47.812;9.274;2023-04-09T13:13:19;4.22;;;3.60;;
19754;SDS011;10036;47.812;9.274;2023-04-09T13:15:46;5.80;;;3.65;;
19754;SDS011;10036;47.812;9.274;2023-04-09T13:18:15;4.07;;;3.67;;
19754;SDS011;10036;47.812;9.274;2023-04-09T13:20:41;3.70;;;3.40;;
19754;SDS011;10036;47.812;9.274;2023-04-09T13:23:08;4.35;;;3.95;;
19754;SDS011;10036;47.812;9.274;2023-04-09T13:25:36;4.35;;;3.95;;
19754;SDS011;10036;47.812;9.274;2023-04-09T13:28:03;4.55;;;3.80;;
19754;SDS011;10036;47.812;9.274;2023-04-09T13:30:29;4.55;;;3.22;;
19754;SDS011;10036;47.812;9.274;2023-04-09T13:32:56;3.65;;;3.35;;
19754;SDS011;10036;47.812;9.274;2023-04-09T13:35:24;3.60;;;3.30;;
19754;SDS011;10036;47.812;9.274;2023-04-09T13:37:51;4.00;;;3.65;;
19754;SDS011;10036;47.812;9.274;2023-04-09T13:40:18;4.10;;;3.70;;
19754;SDS011;10036;47.812;9.274;2023-04-09T13:42:45;4.03;;;3.63;;
19754;SDS011;10036;47.812;9.274;2023-04-09T13:45:14;3.40;;;3.10;;
19754;SDS011;10036;47.812;9.274;2023-04-09T13:48:21;3.67;;;3.38;;
19754;SDS011;10036;47.812;9.274;2023-04-09T13:51:38;3.05;;;2.85;;
19754;SDS011;10036;47.812;9.274;2023-04-09T13:54:37;4.22;;;3.22;;
19754;SDS011;10036;47.812;9.274;2023-04-09T13:57:09;3.20;;;2.90;;
19754;SDS011;10036;47.812;9.274;2023-04-09T13:59:46;3.30;;;3.00;;
19754;SDS011;10036;47.812;9.274;2023-04-09T14:02:13;3.25;;;2.95;;
19754;SDS011;10036;47.812;9.274;2023-04-09T14:04:41;2.92;;;2.72;;
19754;SDS011;10036;47.812;9.274;2023-04-09T14:07:09;3.70;;;2.97;;
19754;SDS011;10036;47.812;9.274;2023-04-09T14:09:36;3.92;;;3.60;;
19754;SDS011;10036;47.812;9.274;2023-04-09T14:12:03;3.90;;;3.50;;
19754;SDS011;10036;47.812;9.274;2023-04-09T14:14:30;3.55;;;3.25;;
19754;SDS011;10036;47.812;9.274;2023-04-09T14:16:57;4.00;;;3.60;;
19754;SDS011;10036;47.812;9.274;2023-04-09T14:19:24;3.45;;;3.15;;
19754;SDS011;10036;47.812;9.274;2023-04-09T14:21:51;3.28;;;2.97;;
19754;SDS011;10036;47.812;9.274;2023-04-09T14:24:20;3.47;;;3.17;;
19754;SDS011;10036;47.812;9.274;2023-04-09T14:26:47;4.15;;;2.90;;
19754;SDS011;10036;47.812;9.274;2023-04-09T14:29:15;3.03;;;2.83;;
19754;SDS011;10036;47.812;9.274;2023-04-09T14:31:42;6.22;;;4.68;;
19754;SDS011;10036;47.812;9.274;2023-04-09T14:34:11;3.42;;;3.13;;
19754;SDS011;10036;47.812;9.274;2023-04-09T14:36:37;2.97;;;2.70;;
19754;SDS011;10036;47.812;9.274;2023-04-09T14:39:04;3.13;;;2.92;;
19754;SDS011;10036;47.812;9.274;2023-04-09T14:41:33;3.05;;;2.85;;
19754;SDS011;10036;47.812;9.274;2023-04-09T14:44:00;2.83;;;2.63;;
19754;SDS011;10036;47.812;9.274;2023-04-09T14:46:27;2.80;;;2.60;;
19754;SDS011;10036;47.812;9.274;2023-04-09T14:48:54;2.97;;;2.75;;
19754;SDS011;10036;47.812;9.274;2023-04-09T14:51:21;2.60;;;2.40;;
19754;SDS011;10036;47.812;9.274;2023-04-09T14:53:47;2.65;;;2.45;;